sensor_id;sensor_type;location;lat;lon;timestamp;temperature;humidity
44215;DHT22;29884;47.450;19.124;2023-04-24T00:00:55;13.50;92.40
44215;DHT22;29884;47.450;19.124;2023-04-24T00:03:26;13.50;93.40
44215;DHT22;29884;47.450;19.124;2023-04-24T00:05:54;13.40;95.30
44215;DHT22;29884;47.450;19.124;2023-04-24T00:08:20;13.30;93.70
44215;DHT22;29884;47.450;19.124;2023-04-24T00:10:46;13.30;93.70
44215;DHT22;29884;47.450;19.124;2023-04-24T00:13:11;13.30;93.70
44215;DHT22;29884;47.450;19.124;2023-04-24T00:15:37;13.30;93.90
44215;DHT22;29884;47.450;19.124;2023-04-24T00:18:03;13.20;95.10
44215;DHT22;29884;47.450;19.124;2023-04-24T00:20:29;13.30;94.80
44215;DHT22;29884;47.450;19.124;2023-04-24T00:22:55;13.20;95.60
44215;DHT22;29884;47.450;19.124;2023-04-24T00:25:21;13.30;96.70
44215;DHT22;29884;47.450;19.124;2023-04-24T00:27:47;13.20;95.90
44215;DHT22;29884;47.450;19.124;2023-04-24T00:30:13;13.20;96.70
44215;DHT22;29884;47.450;19.124;2023-04-24T00:32:38;13.20;97.40
44215;DHT22;29884;47.450;19.124;2023-04-24T00:35:05;13.30;97.80
44215;DHT22;29884;47.450;19.124;2023-04-24T00:37:31;13.30;97.30
44215;DHT22;29884;47.450;19.124;2023-04-24T00:39:57;13.40;96.10
44215;DHT22;29884;47.450;19.124;2023-04-24T00:42:23;13.40;95.70
44215;DHT22;29884;47.450;19.124;2023-04-24T00:44:49;13.40;95.30
44215;DHT22;29884;47.450;19.124;2023-04-24T00:47:15;13.50;95.00
44215;DHT22;29884;47.450;19.124;2023-04-24T00:49:41;13.50;94.90
44215;DHT22;29884;47.450;19.124;2023-04-24T00:52:07;13.40;94.30
44215;DHT22;29884;47.450;19.124;2023-04-24T00:54:35;13.40;94.00
44215;DHT22;29884;47.450;19.124;2023-04-24T00:57:02;13.40;93.70
44215;DHT22;29884;47.450;19.124;2023-04-24T00:59:28;13.40;93.90
44215;DHT22;29884;47.450;19.124;2023-04-24T01:01:54;13.40;94.70
44215;DHT22;29884;47.450;19.124;2023-04-24T01:04:20;13.40;95.20
44215;DHT22;29884;47.450;19.124;2023-04-24T01:06:46;13.40;95.10
44215;DHT22;29884;47.450;19.124;2023-04-24T01:09:13;13.30;94.70
44215;DHT22;29884;47.450;19.124;2023-04-24T01:11:41;13.30;95.30
44215;DHT22;29884;47.450;19.124;2023-04-24T01:14:08;13.30;95.40
44215;DHT22;29884;47.450;19.124;2023-04-24T01:16:34;13.30;95.60
44215;DHT22;29884;47.450;19.124;2023-04-24T01:19:01;13.30;95.60
44215;DHT22;29884;47.450;19.124;2023-04-24T01:21:29;13.30;95.30
44215;DHT22;29884;47.450;19.124;2023-04-24T01:23:56;13.30;96.50
44215;DHT22;29884;47.450;19.124;2023-04-24T01:26:22;13.20;96.90
44215;DHT22;29884;47.450;19.124;2023-04-24T01:28:48;13.20;97.30
44215;DHT22;29884;47.450;19.124;2023-04-24T01:31:15;13.20;97.70
44215;DHT22;29884;47.450;19.124;2023-04-24T01:33:41;13.20;97.70
44215;DHT22;29884;47.450;19.124;2023-04-24T01:36:10;13.20;96.90
44215;DHT22;29884;47.450;19.124;2023-04-24T01:38:36;13.20;97.30
44215;DHT22;29884;47.450;19.124;2023-04-24T01:41:02;13.20;98.00
44215;DHT22;29884;47.450;19.124;2023-04-24T01:43:28;13.20;99.10
44215;DHT22;29884;47.450;19.124;2023-04-24T01:45:54;13.20;98.10
44215;DHT22;29884;47.450;19.124;2023-04-24T01:48:20;13.20;97.60
44215;DHT22;29884;47.450;19.124;2023-04-24T01:50:46;13.20;98.00
44215;DHT22;29884;47.450;19.124;2023-04-24T01:53:12;13.10;98.90
44215;DHT22;29884;47.450;19.124;2023-04-24T01:55:37;13.10;99.60
44215;DHT22;29884;47.450;19.124;2023-04-24T01:58:03;13.10;99.90
44215;DHT22;29884;47.450;19.124;2023-04-24T02:00:29;13.00;99.90
44215;DHT22;29884;47.450;19.124;2023-04-24T02:02:55;12.90;99.90
44215;DHT22;29884;47.450;19.124;2023-04-24T02:05:21;12.60;99.90
44215;DHT22;29884;47.450;19.124;2023-04-24T02:07:47;12.40;99.90
44215;DHT22;29884;47.450;19.124;2023-04-24T02:10:12;12.20;99.90
44215;DHT22;29884;47.450;19.124;2023-04-24T02:12:38;12.00;99.90
44215;DHT22;29884;47.450;19.124;2023-04-24T02:15:04;12.00;99.90
44215;DHT22;29884;47.450;19.124;2023-04-24T02:17:30;11.90;99.90
44215;DHT22;29884;47.450;19.124;2023-04-24T02:19:56;11.90;99.90
44215;DHT22;29884;47.450;19.124;2023-04-24T02:22:22;11.90;99.90
44215;DHT22;29884;47.450;19.124;2023-04-24T02:24:48;12.00;99.90
44215;DHT22;29884;47.450;19.124;2023-04-24T02:27:14;12.00;99.90
44215;DHT22;29884;47.450;19.124;2023-04-24T02:29:40;12.00;99.90
44215;DHT22;29884;47.450;19.124;2023-04-24T02:32:05;12.00;99.90
44215;DHT22;29884;47.450;19.124;2023-04-24T02:34:31;12.00;99.90
44215;DHT22;29884;47.450;19.124;2023-04-24T02:36:57;12.10;99.90
44215;DHT22;29884;47.450;19.124;2023-04-24T02:39:22;12.10;99.90
44215;DHT22;29884;47.450;19.124;2023-04-24T02:41:48;12.10;99.90
44215;DHT22;29884;47.450;19.124;2023-04-24T02:44:14;12.10;99.90
44215;DHT22;29884;47.450;19.124;2023-04-24T02:46:40;12.10;99.90
44215;DHT22;29884;47.450;19.124;2023-04-24T02:49:07;12.10;99.90
44215;DHT22;29884;47.450;19.124;2023-04-24T02:51:33;12.20;99.90
44215;DHT22;29884;47.450;19.124;2023-04-24T02:53:58;12.20;99.90
44215;DHT22;29884;47.450;19.124;2023-04-24T02:56:24;12.30;99.90
44215;DHT22;29884;47.450;19.124;2023-04-24T02:58:50;12.20;99.90
44215;DHT22;29884;47.450;19.124;2023-04-24T03:01:16;12.20;99.90
44215;DHT22;29884;47.450;19.124;2023-04-24T03:03:41;12.20;99.90
44215;DHT22;29884;47.450;19.124;2023-04-24T03:06:07;12.20;99.90
44215;DHT22;29884;47.450;19.124;2023-04-24T03:08:34;12.20;99.90
44215;DHT22;29884;47.450;19.124;2023-04-24T03:10:59;12.20;99.90
44215;DHT22;29884;47.450;19.124;2023-04-24T03:13:25;12.30;99.90
44215;DHT22;29884;47.450;19.124;2023-04-24T03:15:51;12.30;99.90
44215;DHT22;29884;47.450;19.124;2023-04-24T03:18:17;12.20;99.90
44215;DHT22;29884;47.450;19.124;2023-04-24T03:20:45;12.20;99.90
44215;DHT22;29884;47.450;19.124;2023-04-24T03:23:12;12.30;99.90
44215;DHT22;29884;47.450;19.124;2023-04-24T03:25:37;12.30;99.90
44215;DHT22;29884;47.450;19.124;2023-04-24T03:28:03;12.30;99.90
44215;DHT22;29884;47.450;19.124;2023-04-24T03:30:29;12.20;99.90
44215;DHT22;29884;47.450;19.124;2023-04-24T03:32:54;12.20;99.90
44215;DHT22;29884;47.450;19.124;2023-04-24T03:35:20;12.20;99.90
44215;DHT22;29884;47.450;19.124;2023-04-24T03:37:47;12.10;99.90
44215;DHT22;29884;47.450;19.124;2023-04-24T03:40:13;12.10;99.90
44215;DHT22;29884;47.450;19.124;2023-04-24T03:42:38;12.00;99.90
44215;DHT22;29884;47.450;19.124;2023-04-24T03:45:05;12.00;99.90
44215;DHT22;29884;47.450;19.124;2023-04-24T03:47:30;12.00;99.90
44215;DHT22;29884;47.450;19.124;2023-04-24T03:49:56;12.00;99.90
44215;DHT22;29884;47.450;19.124;2023-04-24T03:52:22;12.00;99.90
44215;DHT22;29884;47.450;19.124;2023-04-24T03:54:48;12.00;99.90
44215;DHT22;29884;47.450;19.124;2023-04-24T03:57:13;12.00;99.90
44215;DHT22;29884;47.450;19.124;2023-04-24T03:59:39;12.00;99.90
44215;DHT22;29884;47.450;19.124;2023-04-24T04:02:05;12.10;99.90
44215;DHT22;29884;47.450;19.124;2023-04-24T04:04:31;12.00;99.90
44215;DHT22;29884;47.450;19.124;2023-04-24T04:06:57;11.90;99.90
44215;DHT22;29884;47.450;19.124;2023-04-24T04:09:26;11.90;99.90
44215;DHT22;29884;47.450;19.124;2023-04-24T04:11:52;11.90;99.90
44215;DHT22;29884;47.450;19.124;2023-04-24T04:14:19;11.90;99.90
44215;DHT22;29884;47.450;19.124;2023-04-24T04:16:44;12.00;99.90
44215;DHT22;29884;47.450;19.124;2023-04-24T04:19:10;12.00;99.90
44215;DHT22;29884;47.450;19.124;2023-04-24T04:21:36;12.10;99.90
44215;DHT22;29884;47.450;19.124;2023-04-24T04:24:02;12.10;99.90
44215;DHT22;29884;47.450;19.124;2023-04-24T04:26:27;12.10;99.90
44215;DHT22;29884;47.450;19.124;2023-04-24T04:28:53;12.20;99.90
44215;DHT22;29884;47.450;19.124;2023-04-24T04:31:20;12.30;99.90
44215;DHT22;29884;47.450;19.124;2023-04-24T04:33:46;12.30;99.90
44215;DHT22;29884;47.450;19.124;2023-04-24T04:36:12;12.40;99.90
44215;DHT22;29884;47.450;19.124;2023-04-24T04:38:38;12.50;99.90
44215;DHT22;29884;47.450;19.124;2023-04-24T04:41:03;12.50;99.90
44215;DHT22;29884;47.450;19.124;2023-04-24T04:43:29;12.60;99.90
44215;DHT22;29884;47.450;19.124;2023-04-24T04:45:57;12.60;99.90
44215;DHT22;29884;47.450;19.124;2023-04-24T04:48:23;12.50;99.90
44215;DHT22;29884;47.450;19.124;2023-04-24T04:50:49;12.60;99.90
44215;DHT22;29884;47.450;19.124;2023-04-24T04:53:14;12.50;99.90
44215;DHT22;29884;47.450;19.124;2023-04-24T04:55:40;12.50;99.90
44215;DHT22;29884;47.450;19.124;2023-04-24T04:58:06;12.50;99.90
44215;DHT22;29884;47.450;19.124;2023-04-24T05:00:32;12.50;99.90
44215;DHT22;29884;47.450;19.124;2023-04-24T05:03:01;12.50;99.90
44215;DHT22;29884;47.450;19.124;2023-04-24T05:05:27;12.50;99.90
44215;DHT22;29884;47.450;19.124;2023-04-24T05:07:53;12.50;99.90
44215;DHT22;29884;47.450;19.124;2023-04-24T05:10:19;12.60;99.90
44215;DHT22;29884;47.450;19.124;2023-04-24T05:12:45;12.60;99.90
44215;DHT22;29884;47.450;19.124;2023-04-24T05:15:11;12.70;99.90
44215;DHT22;29884;47.450;19.124;2023-04-24T05:17:36;12.60;99.90
44215;DHT22;29884;47.450;19.124;2023-04-24T05:20:03;12.70;99.90
44215;DHT22;29884;47.450;19.124;2023-04-24T05:22:32;12.70;99.90
44215;DHT22;29884;47.450;19.124;2023-04-24T05:24:58;12.80;99.90
44215;DHT22;29884;47.450;19.124;2023-04-24T05:27:24;12.80;99.90
44215;DHT22;29884;47.450;19.124;2023-04-24T05:29:50;12.80;99.90
44215;DHT22;29884;47.450;19.124;2023-04-24T05:32:16;12.80;99.90
44215;DHT22;29884;47.450;19.124;2023-04-24T05:34:42;12.90;99.90
44215;DHT22;29884;47.450;19.124;2023-04-24T05:37:07;13.00;99.90
44215;DHT22;29884;47.450;19.124;2023-04-24T05:39:35;13.10;99.90
44215;DHT22;29884;47.450;19.124;2023-04-24T05:42:01;13.10;99.90
44215;DHT22;29884;47.450;19.124;2023-04-24T05:44:28;13.10;99.90
44215;DHT22;29884;47.450;19.124;2023-04-24T05:46:54;13.20;99.90
44215;DHT22;29884;47.450;19.124;2023-04-24T05:49:21;13.10;99.90
44215;DHT22;29884;47.450;19.124;2023-04-24T05:51:47;13.20;99.90
44215;DHT22;29884;47.450;19.124;2023-04-24T05:54:12;13.20;99.90
44215;DHT22;29884;47.450;19.124;2023-04-24T05:56:39;13.20;99.90
44215;DHT22;29884;47.450;19.124;2023-04-24T05:59:04;13.30;99.90
44215;DHT22;29884;47.450;19.124;2023-04-24T06:01:30;13.30;99.90
44215;DHT22;29884;47.450;19.124;2023-04-24T06:03:57;13.20;99.90
44215;DHT22;29884;47.450;19.124;2023-04-24T06:06:23;13.30;99.90
44215;DHT22;29884;47.450;19.124;2023-04-24T06:08:49;13.40;99.90
44215;DHT22;29884;47.450;19.124;2023-04-24T06:11:15;13.40;99.90
44215;DHT22;29884;47.450;19.124;2023-04-24T06:13:41;13.40;99.90
44215;DHT22;29884;47.450;19.124;2023-04-24T06:16:07;13.50;99.90
44215;DHT22;29884;47.450;19.124;2023-04-24T06:18:33;13.50;99.90
44215;DHT22;29884;47.450;19.124;2023-04-24T06:20:59;13.50;99.90
44215;DHT22;29884;47.450;19.124;2023-04-24T06:23:24;13.60;99.90
44215;DHT22;29884;47.450;19.124;2023-04-24T06:25:51;13.80;99.90
44215;DHT22;29884;47.450;19.124;2023-04-24T06:28:17;13.80;99.90
44215;DHT22;29884;47.450;19.124;2023-04-24T06:30:42;13.80;99.90
44215;DHT22;29884;47.450;19.124;2023-04-24T06:33:09;13.80;99.90
44215;DHT22;29884;47.450;19.124;2023-04-24T06:35:35;13.80;99.90
44215;DHT22;29884;47.450;19.124;2023-04-24T06:38:01;13.70;99.90
44215;DHT22;29884;47.450;19.124;2023-04-24T06:40:27;13.60;99.90
44215;DHT22;29884;47.450;19.124;2023-04-24T06:42:53;13.60;99.90
44215;DHT22;29884;47.450;19.124;2023-04-24T06:45:18;13.40;99.90
44215;DHT22;29884;47.450;19.124;2023-04-24T06:47:44;13.30;99.90
44215;DHT22;29884;47.450;19.124;2023-04-24T06:50:10;13.40;99.90
44215;DHT22;29884;47.450;19.124;2023-04-24T06:52:36;13.40;99.90
44215;DHT22;29884;47.450;19.124;2023-04-24T06:55:03;13.40;99.90
44215;DHT22;29884;47.450;19.124;2023-04-24T06:57:29;13.40;99.90
44215;DHT22;29884;47.450;19.124;2023-04-24T06:59:55;13.40;99.90
44215;DHT22;29884;47.450;19.124;2023-04-24T07:02:21;13.40;99.90
44215;DHT22;29884;47.450;19.124;2023-04-24T07:04:46;13.30;99.90
44215;DHT22;29884;47.450;19.124;2023-04-24T07:07:13;13.50;99.90
44215;DHT22;29884;47.450;19.124;2023-04-24T07:09:40;13.40;99.90
44215;DHT22;29884;47.450;19.124;2023-04-24T07:12:10;13.40;99.90
44215;DHT22;29884;47.450;19.124;2023-04-24T07:14:39;13.60;99.90
44215;DHT22;29884;47.450;19.124;2023-04-24T07:17:04;13.80;99.90
44215;DHT22;29884;47.450;19.124;2023-04-24T07:19:32;13.80;99.90
44215;DHT22;29884;47.450;19.124;2023-04-24T07:21:58;13.70;99.90
44215;DHT22;29884;47.450;19.124;2023-04-24T07:24:25;13.80;99.90
44215;DHT22;29884;47.450;19.124;2023-04-24T07:26:52;13.70;99.90
44215;DHT22;29884;47.450;19.124;2023-04-24T07:29:18;13.70;99.90
44215;DHT22;29884;47.450;19.124;2023-04-24T07:31:45;13.70;99.90
44215;DHT22;29884;47.450;19.124;2023-04-24T07:34:11;13.60;99.90
44215;DHT22;29884;47.450;19.124;2023-04-24T07:36:36;13.70;99.90
44215;DHT22;29884;47.450;19.124;2023-04-24T07:39:04;13.70;99.90
44215;DHT22;29884;47.450;19.124;2023-04-24T07:41:30;13.70;99.90
44215;DHT22;29884;47.450;19.124;2023-04-24T07:43:55;13.70;99.90
44215;DHT22;29884;47.450;19.124;2023-04-24T07:46:21;13.70;99.90
44215;DHT22;29884;47.450;19.124;2023-04-24T07:48:48;13.90;99.90
44215;DHT22;29884;47.450;19.124;2023-04-24T07:51:15;14.10;99.90
44215;DHT22;29884;47.450;19.124;2023-04-24T07:53:41;14.20;99.90
44215;DHT22;29884;47.450;19.124;2023-04-24T07:56:07;14.40;99.90
44215;DHT22;29884;47.450;19.124;2023-04-24T07:58:33;14.60;99.90
44215;DHT22;29884;47.450;19.124;2023-04-24T08:00:59;15.10;99.90
44215;DHT22;29884;47.450;19.124;2023-04-24T08:03:25;15.20;99.90
44215;DHT22;29884;47.450;19.124;2023-04-24T08:05:51;15.00;99.90
44215;DHT22;29884;47.450;19.124;2023-04-24T08:08:17;15.10;99.90
44215;DHT22;29884;47.450;19.124;2023-04-24T08:10:43;15.50;99.90
44215;DHT22;29884;47.450;19.124;2023-04-24T08:13:08;15.50;99.90
44215;DHT22;29884;47.450;19.124;2023-04-24T08:15:34;15.50;99.90
44215;DHT22;29884;47.450;19.124;2023-04-24T08:18:00;15.40;99.90
44215;DHT22;29884;47.450;19.124;2023-04-24T08:20:26;15.40;99.90
44215;DHT22;29884;47.450;19.124;2023-04-24T08:22:52;15.50;99.90
44215;DHT22;29884;47.450;19.124;2023-04-24T08:25:17;15.60;99.90
44215;DHT22;29884;47.450;19.124;2023-04-24T08:27:44;15.70;99.90
44215;DHT22;29884;47.450;19.124;2023-04-24T08:30:10;15.70;99.90
44215;DHT22;29884;47.450;19.124;2023-04-24T08:32:37;15.90;99.90
44215;DHT22;29884;47.450;19.124;2023-04-24T08:35:03;16.00;99.90
44215;DHT22;29884;47.450;19.124;2023-04-24T08:37:29;16.10;99.90
44215;DHT22;29884;47.450;19.124;2023-04-24T08:39:54;16.30;99.90
44215;DHT22;29884;47.450;19.124;2023-04-24T08:42:21;16.30;99.90
44215;DHT22;29884;47.450;19.124;2023-04-24T08:44:49;16.40;99.90
44215;DHT22;29884;47.450;19.124;2023-04-24T08:47:15;16.60;99.90
44215;DHT22;29884;47.450;19.124;2023-04-24T08:49:41;16.60;99.90
44215;DHT22;29884;47.450;19.124;2023-04-24T08:52:08;16.80;99.90
44215;DHT22;29884;47.450;19.124;2023-04-24T08:54:35;16.70;99.90
44215;DHT22;29884;47.450;19.124;2023-04-24T08:57:01;16.50;99.90
44215;DHT22;29884;47.450;19.124;2023-04-24T08:59:29;16.50;99.90
44215;DHT22;29884;47.450;19.124;2023-04-24T09:01:56;16.60;99.90
44215;DHT22;29884;47.450;19.124;2023-04-24T09:04:22;16.80;99.90
44215;DHT22;29884;47.450;19.124;2023-04-24T09:06:57;16.90;99.90
44215;DHT22;29884;47.450;19.124;2023-04-24T09:09:23;17.20;99.90
44215;DHT22;29884;47.450;19.124;2023-04-24T09:11:50;17.40;99.90
44215;DHT22;29884;47.450;19.124;2023-04-24T09:14:19;17.40;99.90
44215;DHT22;29884;47.450;19.124;2023-04-24T09:16:45;17.70;99.90
44215;DHT22;29884;47.450;19.124;2023-04-24T09:19:11;17.80;99.90
44215;DHT22;29884;47.450;19.124;2023-04-24T09:21:37;17.50;99.90
44215;DHT22;29884;47.450;19.124;2023-04-24T09:24:06;17.70;99.90
44215;DHT22;29884;47.450;19.124;2023-04-24T09:26:35;17.90;99.90
44215;DHT22;29884;47.450;19.124;2023-04-24T09:29:01;18.40;99.90
44215;DHT22;29884;47.450;19.124;2023-04-24T09:31:28;18.90;99.90
44215;DHT22;29884;47.450;19.124;2023-04-24T09:33:55;19.20;99.90
44215;DHT22;29884;47.450;19.124;2023-04-24T09:36:32;19.30;99.90
44215;DHT22;29884;47.450;19.124;2023-04-24T09:39:02;19.10;99.90
44215;DHT22;29884;47.450;19.124;2023-04-24T09:41:28;19.00;99.90
44215;DHT22;29884;47.450;19.124;2023-04-24T09:43:55;19.00;99.90
44215;DHT22;29884;47.450;19.124;2023-04-24T09:46:21;19.10;99.90
44215;DHT22;29884;47.450;19.124;2023-04-24T09:48:47;19.40;99.90
44215;DHT22;29884;47.450;19.124;2023-04-24T09:51:13;19.60;99.90
44215;DHT22;29884;47.450;19.124;2023-04-24T09:53:45;19.40;99.90
44215;DHT22;29884;47.450;19.124;2023-04-24T09:56:11;19.00;99.90
44215;DHT22;29884;47.450;19.124;2023-04-24T09:58:38;19.10;99.90
44215;DHT22;29884;47.450;19.124;2023-04-24T10:01:04;19.10;99.90
44215;DHT22;29884;47.450;19.124;2023-04-24T10:03:31;18.80;99.90
44215;DHT22;29884;47.450;19.124;2023-04-24T10:06:04;18.90;99.90
44215;DHT22;29884;47.450;19.124;2023-04-24T10:08:35;18.80;99.90
44215;DHT22;29884;47.450;19.124;2023-04-24T10:11:01;18.80;99.90
44215;DHT22;29884;47.450;19.124;2023-04-24T10:13:28;18.80;99.90
44215;DHT22;29884;47.450;19.124;2023-04-24T10:15:53;18.80;99.90
44215;DHT22;29884;47.450;19.124;2023-04-24T10:18:20;19.10;99.90
44215;DHT22;29884;47.450;19.124;2023-04-24T10:20:47;19.30;99.90
44215;DHT22;29884;47.450;19.124;2023-04-24T10:23:14;19.40;99.90
44215;DHT22;29884;47.450;19.124;2023-04-24T10:25:40;19.40;99.90
44215;DHT22;29884;47.450;19.124;2023-04-24T10:28:06;19.40;99.90
44215;DHT22;29884;47.450;19.124;2023-04-24T10:30:33;19.10;99.90
44215;DHT22;29884;47.450;19.124;2023-04-24T10:33:04;18.90;99.90
44215;DHT22;29884;47.450;19.124;2023-04-24T10:35:31;18.80;99.90
44215;DHT22;29884;47.450;19.124;2023-04-24T10:38:13;18.80;99.90
44215;DHT22;29884;47.450;19.124;2023-04-24T10:40:40;18.60;99.90
44215;DHT22;29884;47.450;19.124;2023-04-24T10:43:07;18.70;99.90
44215;DHT22;29884;47.450;19.124;2023-04-24T10:45:37;18.70;99.90
44215;DHT22;29884;47.450;19.124;2023-04-24T10:48:05;18.60;99.90
44215;DHT22;29884;47.450;19.124;2023-04-24T10:50:53;18.60;99.90
44215;DHT22;29884;47.450;19.124;2023-04-24T10:53:24;18.60;99.90
44215;DHT22;29884;47.450;19.124;2023-04-24T10:55:58;18.70;99.90
44215;DHT22;29884;47.450;19.124;2023-04-24T10:58:25;18.60;99.90
44215;DHT22;29884;47.450;19.124;2023-04-24T11:01:01;18.80;99.90
44215;DHT22;29884;47.450;19.124;2023-04-24T11:03:28;18.80;99.90
44215;DHT22;29884;47.450;19.124;2023-04-24T11:08:39;18.80;99.90
44215;DHT22;29884;47.450;19.124;2023-04-24T11:11:13;18.80;99.90
44215;DHT22;29884;47.450;19.124;2023-04-24T11:19:09;19.40;99.90
44215;DHT22;29884;47.450;19.124;2023-04-24T11:21:41;19.50;99.90
44215;DHT22;29884;47.450;19.124;2023-04-24T11:26:54;19.50;99.90
44215;DHT22;29884;47.450;19.124;2023-04-24T11:29:20;19.50;99.90
44215;DHT22;29884;47.450;19.124;2023-04-24T11:31:47;19.40;99.90
44215;DHT22;29884;47.450;19.124;2023-04-24T11:34:17;19.50;99.90
44215;DHT22;29884;47.450;19.124;2023-04-24T11:36:44;19.60;99.90
44215;DHT22;29884;47.450;19.124;2023-04-24T11:39:10;19.70;99.90
44215;DHT22;29884;47.450;19.124;2023-04-24T11:41:37;19.80;99.90
44215;DHT22;29884;47.450;19.124;2023-04-24T11:44:05;20.00;99.90
44215;DHT22;29884;47.450;19.124;2023-04-24T11:46:31;19.80;99.90
44215;DHT22;29884;47.450;19.124;2023-04-24T11:48:58;19.70;99.90
44215;DHT22;29884;47.450;19.124;2023-04-24T11:51:26;19.90;99.90
44215;DHT22;29884;47.450;19.124;2023-04-24T11:53:55;20.10;99.90
44215;DHT22;29884;47.450;19.124;2023-04-24T11:56:24;19.90;99.90
44215;DHT22;29884;47.450;19.124;2023-04-24T11:58:52;19.80;99.90
44215;DHT22;29884;47.450;19.124;2023-04-24T12:01:19;19.70;99.90
44215;DHT22;29884;47.450;19.124;2023-04-24T12:03:51;19.50;99.90
44215;DHT22;29884;47.450;19.124;2023-04-24T12:06:24;19.40;99.90
44215;DHT22;29884;47.450;19.124;2023-04-24T12:08:52;19.10;99.90
44215;DHT22;29884;47.450;19.124;2023-04-24T12:11:18;18.90;99.90
44215;DHT22;29884;47.450;19.124;2023-04-24T12:13:44;19.30;99.90
44215;DHT22;29884;47.450;19.124;2023-04-24T12:16:10;19.30;99.90
44215;DHT22;29884;47.450;19.124;2023-04-24T12:18:44;19.30;99.90
44215;DHT22;29884;47.450;19.124;2023-04-24T12:23:46;19.90;99.90
44215;DHT22;29884;47.450;19.124;2023-04-24T12:26:19;20.30;99.90
44215;DHT22;29884;47.450;19.124;2023-04-24T12:28:49;20.40;99.90
44215;DHT22;29884;47.450;19.124;2023-04-24T12:31:16;20.40;99.90
44215;DHT22;29884;47.450;19.124;2023-04-24T12:33:42;20.30;99.90
44215;DHT22;29884;47.450;19.124;2023-04-24T12:36:10;20.10;99.90
44215;DHT22;29884;47.450;19.124;2023-04-24T12:38:37;20.40;99.90
44215;DHT22;29884;47.450;19.124;2023-04-24T12:41:08;20.20;99.90
44215;DHT22;29884;47.450;19.124;2023-04-24T12:43:34;20.10;99.90
44215;DHT22;29884;47.450;19.124;2023-04-24T12:46:00;19.90;99.90
44215;DHT22;29884;47.450;19.124;2023-04-24T12:48:26;19.60;99.90
44215;DHT22;29884;47.450;19.124;2023-04-24T12:50:52;19.40;99.90
44215;DHT22;29884;47.450;19.124;2023-04-24T12:53:18;19.40;99.90
44215;DHT22;29884;47.450;19.124;2023-04-24T12:55:47;19.50;99.90
44215;DHT22;29884;47.450;19.124;2023-04-24T12:58:19;19.70;99.90
44215;DHT22;29884;47.450;19.124;2023-04-24T13:00:45;19.30;99.90
44215;DHT22;29884;47.450;19.124;2023-04-24T13:03:12;19.20;99.90
44215;DHT22;29884;47.450;19.124;2023-04-24T13:05:37;19.00;99.90
44215;DHT22;29884;47.450;19.124;2023-04-24T13:08:03;18.70;99.90
44215;DHT22;29884;47.450;19.124;2023-04-24T13:10:29;18.70;99.90
44215;DHT22;29884;47.450;19.124;2023-04-24T13:12:55;18.60;99.90
44215;DHT22;29884;47.450;19.124;2023-04-24T13:15:21;18.50;99.90
44215;DHT22;29884;47.450;19.124;2023-04-24T13:17:47;18.60;99.90
44215;DHT22;29884;47.450;19.124;2023-04-24T13:20:13;18.40;99.90
44215;DHT22;29884;47.450;19.124;2023-04-24T13:22:39;18.20;99.90
44215;DHT22;29884;47.450;19.124;2023-04-24T13:25:05;18.20;99.90
44215;DHT22;29884;47.450;19.124;2023-04-24T13:27:34;18.20;99.90
44215;DHT22;29884;47.450;19.124;2023-04-24T13:30:00;18.10;99.90
44215;DHT22;29884;47.450;19.124;2023-04-24T13:32:26;17.90;99.90
44215;DHT22;29884;47.450;19.124;2023-04-24T13:34:53;18.00;99.90
44215;DHT22;29884;47.450;19.124;2023-04-24T13:37:18;17.90;99.90
44215;DHT22;29884;47.450;19.124;2023-04-24T13:39:44;17.80;99.90
44215;DHT22;29884;47.450;19.124;2023-04-24T13:42:10;17.60;99.90
44215;DHT22;29884;47.450;19.124;2023-04-24T13:44:37;17.60;99.90
44215;DHT22;29884;47.450;19.124;2023-04-24T13:47:03;17.60;99.90
44215;DHT22;29884;47.450;19.124;2023-04-24T13:49:29;17.50;99.90
44215;DHT22;29884;47.450;19.124;2023-04-24T13:51:55;17.30;99.90
44215;DHT22;29884;47.450;19.124;2023-04-24T13:54:21;17.30;99.90
44215;DHT22;29884;47.450;19.124;2023-04-24T13:56:49;17.30;99.90
44215;DHT22;29884;47.450;19.124;2023-04-24T13:59:15;17.40;99.90
44215;DHT22;29884;47.450;19.124;2023-04-24T14:01:40;17.20;99.90
44215;DHT22;29884;47.450;19.124;2023-04-24T14:04:06;17.30;99.90
44215;DHT22;29884;47.450;19.124;2023-04-24T14:06:32;17.30;99.90
44215;DHT22;29884;47.450;19.124;2023-04-24T14:08:57;17.30;99.90
44215;DHT22;29884;47.450;19.124;2023-04-24T14:11:23;17.30;99.90
44215;DHT22;29884;47.450;19.124;2023-04-24T14:13:49;17.30;99.90
44215;DHT22;29884;47.450;19.124;2023-04-24T14:16:15;17.10;99.90
44215;DHT22;29884;47.450;19.124;2023-04-24T14:18:41;17.10;99.90
44215;DHT22;29884;47.450;19.124;2023-04-24T14:21:07;17.10;99.90
44215;DHT22;29884;47.450;19.124;2023-04-24T14:23:33;17.00;99.90
44215;DHT22;29884;47.450;19.124;2023-04-24T14:25:59;16.90;99.90
44215;DHT22;29884;47.450;19.124;2023-04-24T14:28:25;16.80;99.90
44215;DHT22;29884;47.450;19.124;2023-04-24T14:30:52;16.70;99.90
44215;DHT22;29884;47.450;19.124;2023-04-24T14:33:18;16.80;99.90
44215;DHT22;29884;47.450;19.124;2023-04-24T14:35:44;16.90;99.90
44215;DHT22;29884;47.450;19.124;2023-04-24T14:38:10;16.90;99.90
44215;DHT22;29884;47.450;19.124;2023-04-24T14:40:36;16.80;99.90
44215;DHT22;29884;47.450;19.124;2023-04-24T14:43:02;16.70;99.90
44215;DHT22;29884;47.450;19.124;2023-04-24T14:45:28;16.70;99.90
44215;DHT22;29884;47.450;19.124;2023-04-24T14:47:55;16.70;99.90
44215;DHT22;29884;47.450;19.124;2023-04-24T14:50:20;16.70;99.90
44215;DHT22;29884;47.450;19.124;2023-04-24T14:52:46;16.60;99.90
44215;DHT22;29884;47.450;19.124;2023-04-24T14:55:12;16.60;99.90
44215;DHT22;29884;47.450;19.124;2023-04-24T14:57:39;16.60;99.90
44215;DHT22;29884;47.450;19.124;2023-04-24T15:00:08;16.50;99.90
44215;DHT22;29884;47.450;19.124;2023-04-24T15:02:35;16.30;99.90
44215;DHT22;29884;47.450;19.124;2023-04-24T15:05:05;16.10;99.90
44215;DHT22;29884;47.450;19.124;2023-04-24T15:07:31;16.00;99.90
44215;DHT22;29884;47.450;19.124;2023-04-24T15:09:58;15.90;99.90
44215;DHT22;29884;47.450;19.124;2023-04-24T15:12:24;15.90;99.90
44215;DHT22;29884;47.450;19.124;2023-04-24T15:14:50;15.80;99.90
44215;DHT22;29884;47.450;19.124;2023-04-24T15:17:16;15.70;99.90
44215;DHT22;29884;47.450;19.124;2023-04-24T15:19:41;15.60;99.90
44215;DHT22;29884;47.450;19.124;2023-04-24T15:22:07;15.60;99.90
44215;DHT22;29884;47.450;19.124;2023-04-24T15:24:33;15.40;99.90